Huntington Center, Vermont
Current Conditions -  °F | °C
As of 2:54 PM on Saturday 25 Oct 2014 (Local Time) from KBTV Reporting Station
Broken Clouds Broken Clouds  
Wind Chill: 58°   Ceiling: 5000
Heat Index: 58°   Visibility: 10mi
Dew Point: 42°   Wind: 12mph
Humidity: 56%   Direction: 200°SSW
Pressure: 29.59"   Gusts: NA
Location:  44.3099°N, 72.982°W
Report Text: KBTV 251854Z 20010KT 10SM BKN050 14/06 A2959 RMK AO2 SLP022 T01440056
Loading
Personal Weather Stations






























Interactive Weather Map
Tropical Storm Tracking
New forecast layout! Learn more

10-Day Weather Forecast

Advertisements
Track Severe Weather on mobile